createdAt,value
2022-10-11T00:00:00.206Z,98
2022-10-11T00:05:00.183Z,98
2022-10-11T00:10:00.183Z,98
2022-10-11T00:15:00.176Z,99
2022-10-11T00:20:00.171Z,99
2022-10-11T00:25:00.181Z,98
2022-10-11T00:30:00.214Z,99
2022-10-11T00:35:00.158Z,99
2022-10-11T00:40:00.168Z,99
2022-10-11T00:45:00.175Z,99
2022-10-11T00:50:00.181Z,99
2022-10-11T00:55:00.145Z,99
2022-10-11T01:00:00.211Z,99
2022-10-11T01:05:25.301Z,99
2022-10-11T01:10:00.150Z,99
2022-10-11T01:15:00.180Z,99
2022-10-11T01:20:00.176Z,99
2022-10-11T01:25:00.169Z,99
2022-10-11T01:30:00.174Z,99
2022-10-11T01:35:00.183Z,99
2022-10-11T01:40:00.191Z,99
2022-10-11T01:45:00.178Z,99
2022-10-11T01:50:00.184Z,99
2022-10-11T01:55:11.996Z,99
2022-10-11T02:00:00.215Z,99
2022-10-11T02:05:00.191Z,99
2022-10-11T02:10:00.173Z,99
2022-10-11T02:15:00.184Z,99
2022-10-11T02:20:00.160Z,99
2022-10-11T02:25:00.186Z,99
2022-10-11T02:30:00.179Z,99
2022-10-11T02:35:00.183Z,99
2022-10-11T02:40:00.146Z,99
2022-10-11T02:45:00.176Z,99
2022-10-11T02:50:00.198Z,99
2022-10-11T02:55:00.155Z,99
2022-10-11T03:00:00.218Z,99
2022-10-11T03:05:00.167Z,99
2022-10-11T03:10:00.187Z,99
2022-10-11T03:15:00.183Z,99
2022-10-11T03:20:00.192Z,99
2022-10-11T03:25:03.975Z,99
2022-10-11T03:30:00.194Z,99
2022-10-11T03:35:00.156Z,99
2022-10-11T03:40:00.190Z,99
2022-10-11T03:45:00.185Z,99
2022-10-11T03:50:00.192Z,99
2022-10-11T03:55:00.170Z,99
2022-10-11T04:00:00.259Z,99
2022-10-11T04:05:00.230Z,99
2022-10-11T04:10:00.188Z,99
2022-10-11T04:15:00.164Z,99
2022-10-11T04:20:00.176Z,99
2022-10-11T04:25:00.196Z,99
2022-10-11T04:30:00.210Z,99
2022-10-11T04:35:00.165Z,99
2022-10-11T04:40:00.178Z,99
2022-10-11T04:45:00.209Z,99
2022-10-11T04:50:00.185Z,99
2022-10-11T04:55:00.187Z,99
2022-10-11T05:00:00.256Z,99
2022-10-11T05:05:00.191Z,99
2022-10-11T05:10:00.185Z,99
2022-10-11T05:15:00.203Z,99
2022-10-11T05:20:00.204Z,99
2022-10-11T05:25:00.201Z,99
2022-10-11T05:30:00.198Z,99
2022-10-11T05:35:00.198Z,99
2022-10-11T05:40:00.196Z,99
2022-10-11T05:45:00.212Z,99
2022-10-11T05:50:00.230Z,99
2022-10-11T05:55:00.235Z,99
2022-10-11T06:00:00.407Z,99
2022-10-11T06:05:00.176Z,99
2022-10-11T06:10:00.194Z,99
2022-10-11T06:15:00.162Z,99
2022-10-11T06:20:00.188Z,99
2022-10-11T06:25:00.177Z,99
2022-10-11T06:30:00.204Z,99
2022-10-11T06:35:00.197Z,99
2022-10-11T06:40:00.229Z,98
2022-10-11T06:45:00.227Z,98
2022-10-11T06:50:00.209Z,97
2022-10-11T06:55:00.214Z,95
2022-10-11T07:00:00.278Z,93
2022-10-11T07:05:00.265Z,93
2022-10-11T07:10:00.229Z,90
2022-10-11T07:15:00.190Z,89
2022-10-11T07:20:00.211Z,89
2022-10-11T07:25:00.292Z,89
2022-10-11T07:30:00.213Z,88
2022-10-11T07:35:00.199Z,86
2022-10-11T07:40:00.201Z,86
2022-10-11T07:45:00.258Z,86
2022-10-11T07:50:00.207Z,86
2022-10-11T07:55:00.209Z,85
2022-10-11T08:00:00.247Z,83
2022-10-11T08:05:00.202Z,82
2022-10-11T08:10:00.192Z,82
2022-10-11T08:15:00.218Z,81
2022-10-11T08:20:00.199Z,81
2022-10-11T08:25:00.232Z,82
2022-10-11T08:30:00.249Z,81
2022-10-11T08:35:00.199Z,80
2022-10-11T08:40:00.247Z,79
2022-10-11T08:45:10.674Z,80
2022-10-11T08:50:00.205Z,80
2022-10-11T08:55:00.210Z,75
2022-10-11T09:00:00.217Z,75
2022-10-11T09:05:11.470Z,73
2022-10-11T09:10:00.185Z,73
2022-10-11T09:15:00.224Z,69
2022-10-11T09:20:00.294Z,69
2022-10-11T09:25:00.202Z,69
2022-10-11T09:30:00.197Z,71
2022-10-11T09:35:00.206Z,65
2022-10-11T09:40:00.227Z,65
2022-10-11T09:45:00.217Z,66
2022-10-11T09:50:00.214Z,67
2022-10-11T09:55:00.237Z,62
2022-10-11T10:00:00.237Z,62
2022-10-11T10:05:00.220Z,60
2022-10-11T10:10:00.203Z,60
2022-10-11T10:15:00.191Z,62
2022-10-11T10:20:00.196Z,61
2022-10-11T10:25:00.350Z,61
2022-10-11T10:30:00.215Z,59
2022-10-11T10:35:00.206Z,59
2022-10-11T10:40:00.223Z,60
2022-10-11T10:45:00.229Z,61
2022-10-11T10:50:00.229Z,62
2022-10-11T10:55:00.205Z,59
2022-10-11T11:00:00.256Z,59
2022-10-11T11:10:00.231Z,57
2022-10-11T11:15:00.208Z,57
2022-10-11T11:20:00.209Z,60
2022-10-11T11:25:00.205Z,59
2022-10-11T11:30:00.209Z,60
2022-10-11T11:35:00.222Z,57
2022-10-11T11:40:00.230Z,58
2022-10-11T11:45:00.192Z,59
2022-10-11T11:50:00.247Z,60
2022-10-11T11:55:03.782Z,58
2022-10-11T12:00:00.245Z,59
2022-10-11T12:05:00.268Z,60
2022-10-11T12:10:00.194Z,56
2022-10-11T12:15:00.203Z,53
2022-10-11T12:20:00.208Z,53
2022-10-11T12:25:00.205Z,54
2022-10-11T12:30:00.236Z,54
2022-10-11T12:35:00.185Z,51
2022-10-11T12:40:00.213Z,52
2022-10-11T12:45:00.249Z,55
2022-10-11T12:50:00.232Z,53
2022-10-11T12:55:00.212Z,56
2022-10-11T13:00:00.237Z,58
2022-10-11T13:05:00.227Z,60
2022-10-11T13:10:00.491Z,58
2022-10-11T13:15:00.209Z,59
2022-10-11T13:20:00.233Z,58
2022-10-11T13:25:00.222Z,59
2022-10-11T13:30:00.229Z,60
2022-10-11T13:35:00.215Z,59
2022-10-11T13:40:00.230Z,60
2022-10-11T13:45:00.224Z,58
2022-10-11T13:50:00.215Z,57
2022-10-11T13:55:00.215Z,49
2022-10-11T14:00:00.257Z,50
2022-10-11T14:05:00.232Z,48
2022-10-11T14:10:00.214Z,51
2022-10-11T14:15:00.236Z,51
2022-10-11T14:20:06.069Z,51
2022-10-11T14:25:00.194Z,51
2022-10-11T14:30:24.097Z,51
2022-10-11T14:35:00.236Z,53
2022-10-11T14:40:00.291Z,56
2022-10-11T14:45:00.190Z,55
2022-10-11T14:50:00.237Z,59
2022-10-11T14:55:00.194Z,59
2022-10-11T15:00:00.337Z,58
2022-10-11T15:05:00.217Z,58
2022-10-11T15:10:00.203Z,57
2022-10-11T15:15:00.210Z,58
2022-10-11T15:20:00.210Z,59
2022-10-11T15:25:00.224Z,58
2022-10-11T15:30:00.264Z,60
2022-10-11T15:35:00.268Z,59
2022-10-11T15:40:00.318Z,61
2022-10-11T15:45:00.240Z,61
2022-10-11T15:50:00.365Z,61
2022-10-11T15:55:00.246Z,60
2022-10-11T16:00:00.302Z,63
2022-10-11T16:05:00.248Z,65
2022-10-11T16:10:00.226Z,66
2022-10-11T16:15:00.233Z,67
2022-10-11T16:20:00.213Z,68
2022-10-11T16:25:00.260Z,70
2022-10-11T16:30:00.251Z,71
2022-10-11T16:35:00.208Z,74
2022-10-11T16:40:00.258Z,75
2022-10-11T16:45:00.309Z,75
2022-10-11T16:55:00.240Z,78
2022-10-11T17:00:00.282Z,78
2022-10-11T17:05:00.225Z,79
2022-10-11T17:10:00.280Z,81
2022-10-11T17:15:00.253Z,81
2022-10-11T17:35:00.324Z,80
2022-10-11T17:40:00.384Z,80
2022-10-11T17:50:00.253Z,81
2022-10-11T17:55:00.284Z,82
2022-10-11T18:00:00.300Z,82
2022-10-11T18:05:00.242Z,83
2022-10-11T18:10:00.244Z,83
2022-10-11T18:15:00.303Z,84
2022-10-11T18:20:00.258Z,85
2022-10-11T18:25:00.265Z,87
2022-10-11T18:30:00.258Z,87
2022-10-11T18:35:00.755Z,87
2022-10-11T18:40:01.132Z,87
2022-10-11T18:45:02.068Z,88
2022-10-11T18:50:00.253Z,89
2022-10-11T18:55:01.162Z,90
2022-10-11T19:00:11.497Z,90
2022-10-11T19:05:01.733Z,91
2022-10-11T19:15:00.311Z,91
2022-10-11T19:20:01.215Z,92
2022-10-11T19:25:00.291Z,93
2022-10-11T19:30:00.306Z,93
2022-10-11T19:35:00.353Z,93
2022-10-11T19:40:01.110Z,93
2022-10-11T20:05:00.421Z,95
2022-10-11T20:25:00.425Z,96
2022-10-11T20:30:00.350Z,96
2022-10-11T20:35:00.379Z,96
2022-10-11T20:40:00.320Z,96
2022-10-11T20:45:00.357Z,96
2022-10-11T20:50:00.309Z,96
2022-10-11T20:55:00.343Z,96
2022-10-11T21:00:00.374Z,97
2022-10-11T21:10:00.288Z,97
2022-10-11T21:15:00.284Z,97
2022-10-11T21:20:00.291Z,97
2022-10-11T21:25:00.279Z,97
2022-10-11T21:30:00.289Z,97
2022-10-11T21:35:00.264Z,97
2022-10-11T21:40:00.262Z,97
2022-10-11T21:45:00.444Z,97
2022-10-11T21:50:00.243Z,97
2022-10-11T21:55:00.276Z,97
2022-10-11T22:00:08.165Z,97
2022-10-11T22:05:00.248Z,97
2022-10-11T22:10:00.257Z,97
2022-10-11T22:15:00.577Z,98
2022-10-11T22:20:00.472Z,98
2022-10-11T22:25:00.282Z,98
2022-10-11T22:30:00.525Z,98
2022-10-11T22:35:00.944Z,98
2022-10-11T22:40:00.285Z,98
2022-10-11T22:45:00.290Z,98
2022-10-11T22:50:00.306Z,98
2022-10-11T22:55:00.565Z,98
2022-10-11T23:00:00.680Z,98
2022-10-11T23:05:00.378Z,98
2022-10-11T23:10:00.755Z,98
2022-10-11T23:15:00.912Z,98
2022-10-11T23:20:00.240Z,98
2022-10-11T23:25:00.261Z,99
2022-10-11T23:30:00.264Z,99
2022-10-11T23:35:00.263Z,99
2022-10-11T23:40:00.301Z,99
2022-10-11T23:45:00.277Z,98
2022-10-11T23:50:00.336Z,98
2022-10-11T23:55:00.290Z,98
